KDZJ

Blairsville Airport

Blairsville, Georgia, USA
METAR KDZJ 210515Z AUTO 00000KT 10SM OVC019 21/20 A3011 RMK AO2 T02150202
Observed Flight Rules
Aug-21 @ 05:15 UTC (9 hours ago) Marginal Visual Flight Rules
Visibility Clouds
10 miles
  • Overcast at 1,900' AGL
Temperatures Readings
Current 22°C / 72°F
Dewpoint 20°C / 68°F
Humidity 88%
Altimeter 30.11" Hg
Pressure 1020 hPa
Elevation 582
METAR KDZJ 210515Z AUTO 00000KT 10SM OVC019 21/20 A3011 RMK AO2 T02150202
Observed Flight Rules
Aug-21 @ 05:15 UTC
(9 hours ago)
MVFR
Clouds
  • Overcast at 1,900' AGL
Temperature Dewpoint
22°C / 72°F 20°C / 68°F
Humidity Altimeter Pressure
88% 30.11" Hg 1020 hPa